539 км Убкуа

СКИДКИ НА СМАРТФОНЫ!

Карта отелей и гостиниц, располагающихся рядом с аэропортом 539 км Убкуа :

539 км Убкуа Тюменская область 57° 49' 45.12" N, 67° 12' 36.7812" E
539 км Убкуа Тюменская область 57° 49' 45.12" N, 67° 12' 36.7812" E
Код аэродрома ИКАО
HDQ1
Код аэродрома RU
ХДЯ1
Координаты
N57.82920° E067.21022°
Превышение над уровнем моря
54
Основная полоса
Курс магнитный
Длина основной ВПП
30
Ширина основной ВПП
30
Покрытие основной ВПП
Твёрдое (бетон)
Освещение ВПП
Нет
Тип: 
Вертодром
Класс аэродрома: 
Принадлежность: 
ГА
Статус: 
Действующий
Сайт: 
E-mail аэродрома: 
Страна: 
Россия
Регион: 
Тюменская область
Город: 
Дополнительная информация: 

Скидки на навигаторы!

Найти трансфер

С помощью этой формы Вы можете найти трансфер из аэропорта 539 км Убкуа в город, аэропорт или вокзал:

Погода в аэропортах:

Авиационная погода в Калуге (Грабцево)

Регион: 
Погода METAR: 
UUBC 190400Z 02004MPS 330V060 9000 -SHRA SCT066CB 16/15 Q1021 R31/290050 NOSIG RMK QFE749/0998
Время наблюдения
2022-08-19T04:00:00Z
Температура C
16.0
Точка росы
15.0
Направление ветра
20
Скорость ветра (узлы)
8
Метео видимость
5.59
Облачность
SCT
Нижняя граница облачности (футы)
6600
Явления погоды
-SHRA
Условия полета
VFR
SCT – разбросанная отдельная облачность;
-SHRA - слабый ливневой дождь;

Авиационная погода в Ханты-Мансийске

Регион: 
Погода METAR: 
USHH 190400Z 27002MPS 9000 -SHRA BKN004CB 12/12 Q1024 R24/290050 TEMPO 2000 SHRA BKN003 OVC010CB
Время наблюдения
2022-08-19T04:00:00Z
Температура C
12.0
Точка росы
12.0
Направление ветра
270
Скорость ветра (узлы)
4
Метео видимость
5.59
Облачность
BKN
Нижняя граница облачности (футы)
400
Явления погоды
-SHRA
Условия полета
LIFR
Аэропорт подробнее: 
BKN – значительная (рассеянная, разорванная) облачность;
-SHRA - слабый ливневой дождь;

Авиационная погода в Богашево

Регион: 
Погода METAR: 
UNTT 190400Z 24003MPS 0750 0650W R21/0750U FG VV001 11/11 Q1011 R21/290050 NOSIG RMK QBB050 QFE743
Время наблюдения
2022-08-19T04:00:00Z
Температура C
11.0
Точка росы
11.0
Направление ветра
240
Скорость ветра (узлы)
6
Метео видимость
0.47
Облачность
OVX
Нижняя граница облачности (футы)
0
Явления погоды
FG
Условия полета
LIFR
Аэропорт подробнее: 
FG – туман (небо не видно, температура воздуха выше нуля или ноль);

Авиационная погода в Кневичи

Регион: 
Погода METAR: 
UHWW 190400Z 18007G12MPS 9999 -SHRA SCT015 BKN040CB 24/22 Q0997 R25L/250060 NOSIG RMK QFE747
Время наблюдения
2022-08-19T04:00:00Z
Температура C
24.0
Точка росы
22.0
Направление ветра
180
Скорость ветра (узлы)
14
Метео видимость
6.21
Облачность
SCT
BKN
Нижняя граница облачности (футы)
1500
4000
Явления погоды
-SHRA
Условия полета
VFR
Аэропорт подробнее: 
SCT – разбросанная отдельная облачность; BKN – значительная (рассеянная, разорванная) облачность;
-SHRA - слабый ливневой дождь;